Time;durP1;ratioP1;P1;durP2;ratioP2;P2;SDS_P1;SDS_P2;PMS_P1;PMS_P2;Temp;Humidity;BMP_temperature;BMP_pressure;BME280_temperature;BME280_humidity;BME280_pressure;Samples;Min_cycle;Max_cycle;Signal;HPM_P1;HPM_P2
2023/12/15 00:00:24;;;;;;;0.55;0.43;;;21.30;45.70;;;;;;5117803;27;20036;-52
2023/12/15 00:02:50;;;;;;;;;;;21.50;45.70;;;;;;5113925;28;20066;-48
2023/12/15 00:05:16;;;;;;;0.80;0.50;;;21.50;45.60;;;;;;5120284;28;19908;-51
2023/12/15 00:07:42;;;;;;;0.60;0.50;;;21.60;45.50;;;;;;5118285;27;20049;-50
2023/12/15 00:10:08;;;;;;;0.77;0.45;;;21.60;45.40;;;;;;5112452;28;20040;-48
2023/12/15 00:12:35;;;;;;;0.98;0.40;;;21.70;45.30;;;;;;5095059;28;20769;-49
2023/12/15 00:15:01;;;;;;;1.13;0.50;;;21.80;45.30;;;;;;5113492;28;20062;-53
2023/12/15 00:17:27;;;;;;;0.60;0.47;;;21.90;45.20;;;;;;5112149;27;20024;-52
2023/12/15 00:19:53;;;;;;;0.60;0.40;;;21.90;45.10;;;;;;5101569;28;20032;-50
2023/12/15 00:22:19;;;;;;;1.02;0.50;;;22.00;45.00;;;;;;5114991;28;20027;-48
2023/12/15 00:24:45;;;;;;;1.00;0.60;;;22.10;45.00;;;;;;5095596;28;20043;-53
2023/12/15 00:27:12;;;;;;;0.98;0.55;;;22.20;44.90;;;;;;5114477;27;20107;-52
2023/12/15 00:29:38;;;;;;;0.55;0.40;;;22.20;44.80;;;;;;5116481;28;20031;-48
2023/12/15 00:32:04;;;;;;;1.85;0.50;;;22.30;44.80;;;;;;5113759;28;20032;-52
2023/12/15 00:34:30;;;;;;;1.98;0.60;;;22.40;44.70;;;;;;5110809;28;20064;-52
2023/12/15 00:36:57;;;;;;;1.88;0.60;;;22.40;44.60;;;;;;5113467;28;20032;-51
2023/12/15 00:39:23;;;;;;;1.77;0.40;;;22.50;44.60;;;;;;5111303;28;20024;-52
2023/12/15 00:41:49;;;;;;;0.77;0.43;;;22.50;44.50;;;;;;5113555;27;20035;-53
2023/12/15 00:44:15;;;;;;;0.80;0.50;;;22.60;44.50;;;;;;5114820;28;20023;-51
2023/12/15 00:46:41;;;;;;;0.52;0.40;;;22.70;44.40;;;;;;5109269;28;20034;-54
2023/12/15 00:49:07;;;;;;;0.70;0.45;;;22.70;44.30;;;;;;5111704;28;20077;-53
2023/12/15 00:51:34;;;;;;;0.60;0.50;;;22.80;44.30;;;;;;5114967;28;22064;-55
2023/12/15 00:54:00;;;;;;;1.90;0.50;;;22.80;44.30;;;;;;5114399;27;20057;-55
2023/12/15 00:56:26;;;;;;;2.45;0.82;;;22.90;44.20;;;;;;5112679;28;20035;-54
2023/12/15 00:58:53;;;;;;;0.90;0.60;;;22.90;44.30;;;;;;5117342;28;20023;-54
2023/12/15 01:01:19;;;;;;;1.20;0.50;;;23.00;44.50;;;;;;5114688;28;20028;-43
2023/12/15 01:03:45;;;;;;;1.75;0.60;;;23.00;44.40;;;;;;5118351;27;20031;-42
2023/12/15 01:06:12;;;;;;;4.22;0.65;;;23.00;43.80;;;;;;5115771;27;20028;-42
2023/12/15 01:08:38;;;;;;;3.65;0.80;;;23.00;43.70;;;;;;5120381;28;20069;-52
2023/12/15 01:11:04;;;;;;;1.92;0.60;;;23.00;42.30;;;;;;5115808;28;20043;-54
2023/12/15 01:13:31;;;;;;;0.70;0.40;;;23.00;42.30;;;;;;5100903;28;20024;-54
2023/12/15 01:15:57;;;;;;;0.73;0.57;;;23.00;42.30;;;;;;5118525;28;20063;-53
2023/12/15 01:18:24;;;;;;;1.75;0.50;;;23.00;42.20;;;;;;5117297;28;20031;-51
2023/12/15 01:20:50;;;;;;;1.05;0.55;;;23.10;42.30;;;;;;5119629;28;20028;-53
2023/12/15 01:23:17;;;;;;;1.50;0.60;;;23.10;42.30;;;;;;5119319;28;20039;-52
2023/12/15 01:25:43;;;;;;;1.40;0.73;;;23.10;42.30;;;;;;5116343;28;20031;-54
2023/12/15 01:28:10;;;;;;;1.52;0.52;;;23.10;42.30;;;;;;5118202;28;20031;-50
2023/12/15 01:30:36;;;;;;;0.90;0.50;;;23.20;42.30;;;;;;5119628;28;20042;-53
2023/12/15 01:33:02;;;;;;;2.42;0.60;;;23.20;42.30;;;;;;5116763;28;20090;-53
2023/12/15 01:35:28;;;;;;;0.77;0.60;;;23.20;42.20;;;;;;5117785;28;20042;-53
2023/12/15 01:37:56;;;;;;;1.67;0.60;;;23.20;42.20;;;;;;5115868;27;20023;-53
2023/12/15 01:40:22;;;;;;;1.20;0.50;;;23.30;42.20;;;;;;5116263;27;20028;-50
2023/12/15 01:42:48;;;;;;;0.82;0.70;;;23.30;42.20;;;;;;5116083;27;20032;-51
2023/12/15 01:45:14;;;;;;;3.00;0.60;;;23.30;42.10;;;;;;5114564;28;20130;-53
2023/12/15 01:47:41;;;;;;;1.02;0.60;;;23.40;42.10;;;;;;5119226;28;20055;-53
2023/12/15 01:50:08;;;;;;;0.90;0.47;;;23.40;42.00;;;;;;5113345;27;20449;-52
2023/12/15 01:52:34;;;;;;;1.48;0.60;;;23.40;42.00;;;;;;5108924;28;20035;-51
2023/12/15 01:55:00;;;;;;;0.70;0.50;;;23.40;41.90;;;;;;5112423;27;20039;-53
2023/12/15 01:57:26;;;;;;;2.05;0.50;;;23.50;41.90;;;;;;5094000;27;20134;-51
2023/12/15 01:59:53;;;;;;;0.80;0.40;;;23.50;41.90;;;;;;5112721;28;20049;-52
2023/12/15 02:02:19;;;;;;;0.75;0.52;;;23.50;41.80;;;;;;5111273;27;20027;-50
2023/12/15 02:04:46;;;;;;;0.68;0.50;;;23.50;41.80;;;;;;5115138;28;20020;-51
2023/12/15 02:07:12;;;;;;;0.43;0.40;;;23.60;41.80;;;;;;5098919;28;20028;-54
2023/12/15 02:09:39;;;;;;;0.77;0.55;;;23.60;41.70;;;;;;5095353;28;20043;-52
2023/12/15 02:12:06;;;;;;;0.95;0.50;;;23.60;41.70;;;;;;5102564;28;20565;-52
2023/12/15 02:14:34;;;;;;;1.00;0.50;;;23.60;41.60;;;;;;5112321;28;20035;-53
2023/12/15 02:17:02;;;;;;;0.63;0.55;;;23.60;41.60;;;;;;5109683;28;20024;-53
2023/12/15 02:19:29;;;;;;;1.42;0.70;;;23.70;41.60;;;;;;5112542;28;20056;-53
2023/12/15 02:21:55;;;;;;;1.13;0.50;;;23.70;41.50;;;;;;5111540;28;20031;-53
2023/12/15 02:24:21;;;;;;;4.88;0.90;;;23.70;41.40;;;;;;5114605;27;20027;-50
2023/12/15 02:26:47;;;;;;;6.55;0.80;;;23.70;41.40;;;;;;5111102;28;20035;-52
2023/12/15 02:29:13;;;;;;;3.92;0.85;;;23.70;41.20;;;;;;5112500;28;20635;-50
2023/12/15 02:31:39;;;;;;;3.35;0.90;;;23.70;41.20;;;;;;5113789;28;20082;-53
2023/12/15 02:34:06;;;;;;;1.75;0.90;;;23.70;41.00;;;;;;5111597;27;20031;-48
2023/12/15 02:36:32;;;;;;;4.73;0.73;;;23.70;41.00;;;;;;5116809;28;20031;-48
2023/12/15 02:38:58;;;;;;;3.60;0.80;;;23.70;40.90;;;;;;5102690;28;20027;-50
2023/12/15 02:41:24;;;;;;;2.55;1.00;;;23.70;41.00;;;;;;5115163;28;20020;-50
2023/12/15 02:43:51;;;;;;;2.55;0.80;;;23.70;41.00;;;;;;5114668;28;20020;-49
2023/12/15 02:46:17;;;;;;;5.80;1.23;;;23.70;41.00;;;;;;5118847;28;20041;-50
2023/12/15 02:48:43;;;;;;;4.90;1.00;;;23.70;40.90;;;;;;5113050;28;20059;-51
2023/12/15 02:51:10;;;;;;;3.75;0.90;;;23.70;40.90;;;;;;5116440;28;20067;-50
2023/12/15 02:53:40;;;;;;;1.02;0.60;;;23.80;41.00;;;;;;5110205;28;20507;-50
2023/12/15 02:56:06;;;;;;;2.35;0.60;;;23.80;41.00;;;;;;5115229;28;20046;-53
2023/12/15 02:58:32;;;;;;;3.65;0.80;;;23.80;41.00;;;;;;5114303;28;20023;-49
2023/12/15 03:00:59;;;;;;;1.33;0.70;;;23.80;40.90;;;;;;5107813;28;20068;-50
2023/12/15 03:03:25;;;;;;;4.75;0.75;;;23.80;40.90;;;;;;5116587;28;20066;-50
2023/12/15 03:05:51;;;;;;;3.35;0.68;;;23.80;40.80;;;;;;5117011;28;20496;-48
2023/12/15 03:08:17;;;;;;;2.42;0.70;;;23.80;40.80;;;;;;5114243;28;20032;-49
2023/12/15 03:10:43;;;;;;;1.42;0.60;;;23.90;40.80;;;;;;5107791;28;20040;-49
2023/12/15 03:13:10;;;;;;;4.90;0.85;;;23.90;40.70;;;;;;5103984;28;20032;-52
2023/12/15 03:15:36;;;;;;;1.35;0.68;;;23.90;40.60;;;;;;5110894;28;20032;-52
2023/12/15 03:18:02;;;;;;;2.35;0.60;;;23.90;40.70;;;;;;5110707;28;20024;-47
2023/12/15 03:20:28;;;;;;;1.05;0.60;;;23.90;40.60;;;;;;5102993;28;20032;-44
2023/12/15 03:22:59;;;;;;;3.22;0.65;;;24.00;40.70;;;;;;5108465;28;20401;-46
2023/12/15 03:25:25;;;;;;;1.20;0.70;;;24.00;40.60;;;;;;5105820;28;20080;-46
2023/12/15 03:27:51;;;;;;;0.90;0.70;;;24.00;40.60;;;;;;5115098;28;20531;-46
2023/12/15 03:30:17;;;;;;;2.88;1.00;;;24.00;40.60;;;;;;5109457;28;20071;-43
2023/12/15 03:32:43;;;;;;;6.18;1.30;;;24.00;39.60;;;;;;5106927;28;20040;-38
2023/12/15 03:35:10;;;;;;;3.38;1.00;;;23.90;40.20;;;;;;5114900;27;20031;-39
2023/12/15 03:37:36;;;;;;;2.95;0.93;;;24.00;40.50;;;;;;5111018;27;20028;-41
2023/12/15 03:40:03;;;;;;;1.88;1.08;;;24.00;40.50;;;;;;5111691;27;20038;-40
2023/12/15 03:42:30;;;;;;;1.10;0.70;;;24.00;40.50;;;;;;5113220;27;20087;-40
2023/12/15 03:44:56;;;;;;;4.43;1.05;;;24.00;40.50;;;;;;5118814;27;20032;-40
2023/12/15 03:47:22;;;;;;;1.92;0.75;;;24.00;40.70;;;;;;5124194;27;20493;-40
2023/12/15 03:49:49;;;;;;;1.10;0.80;;;24.10;40.90;;;;;;5113815;28;20040;-40
2023/12/15 03:52:16;;;;;;;2.00;0.75;;;24.10;41.00;;;;;;5114229;27;20028;-40
2023/12/15 03:54:42;;;;;;;2.10;0.80;;;24.10;41.10;;;;;;5118107;28;20027;-40
2023/12/15 03:57:09;;;;;;;1.15;0.80;;;24.10;41.10;;;;;;5116243;28;20543;-40
2023/12/15 03:59:38;;;;;;;3.72;0.65;;;24.20;41.20;;;;;;5119192;27;20111;-40
2023/12/15 04:02:05;;;;;;;3.35;1.00;;;24.20;41.20;;;;;;5094200;28;20074;-42
2023/12/15 04:04:32;;;;;;;1.20;1.00;;;24.20;41.20;;;;;;5109376;27;20020;-40
2023/12/15 04:06:58;;;;;;;1.40;0.90;;;24.30;41.20;;;;;;5114494;28;20100;-41
2023/12/15 04:09:25;;;;;;;2.70;0.80;;;24.20;41.20;;;;;;5112724;27;20036;-41
2023/12/15 04:11:51;;;;;;;1.25;0.90;;;24.20;41.30;;;;;;5110901;27;20561;-41
2023/12/15 04:14:17;;;;;;;2.17;1.48;;;24.20;41.20;;;;;;5112348;28;20031;-41
2023/12/15 04:16:43;;;;;;;2.35;1.40;;;24.30;41.10;;;;;;5114193;28;20081;-40
2023/12/15 04:19:10;;;;;;;1.10;0.82;;;24.30;41.20;;;;;;5114780;27;20035;-41
2023/12/15 04:21:36;;;;;;;1.55;0.80;;;24.30;41.20;;;;;;5114554;27;20035;-41
2023/12/15 04:24:03;;;;;;;1.17;0.90;;;24.30;41.20;;;;;;5111695;28;20027;-40
2023/12/15 04:26:29;;;;;;;0.95;0.80;;;24.30;41.30;;;;;;5112567;28;20042;-40
2023/12/15 04:28:56;;;;;;;0.90;0.73;;;24.30;41.20;;;;;;5114985;27;20224;-42
2023/12/15 04:31:22;;;;;;;1.10;0.80;;;24.30;41.40;;;;;;5116515;28;20067;-40
2023/12/15 04:33:48;;;;;;;1.30;0.82;;;24.30;41.30;;;;;;5112618;28;20031;-40
2023/12/15 04:36:19;;;;;;;1.37;0.90;;;24.40;41.20;;;;;;5114053;28;20024;-40
2023/12/15 04:38:45;;;;;;;1.05;0.93;;;24.40;41.30;;;;;;5092322;28;20280;-41
2023/12/15 04:41:19;;;;;;;1.20;0.77;;;24.40;41.30;;;;;;5113575;28;20023;-41
2023/12/15 04:43:46;;;;;;;4.05;1.08;;;24.40;41.90;;;;;;5111884;27;20031;-41
2023/12/15 04:46:12;;;;;;;2.60;0.90;;;24.40;41.20;;;;;;5114584;28;20032;-41
2023/12/15 04:48:38;;;;;;;1.37;1.00;;;24.40;41.30;;;;;;5092083;28;20139;-40
2023/12/15 04:51:05;;;;;;;3.92;1.13;;;24.50;41.50;;;;;;5108205;28;20050;-40
2023/12/15 04:53:31;;;;;;;1.60;1.20;;;24.50;41.50;;;;;;5113276;28;20409;-40
2023/12/15 04:55:57;;;;;;;1.75;1.23;;;24.40;41.60;;;;;;5114175;27;20046;-41
2023/12/15 04:58:23;;;;;;;1.27;1.00;;;24.30;41.90;;;;;;5120505;28;20031;-41
2023/12/15 05:00:49;;;;;;;9.57;3.15;;;24.20;42.30;;;;;;5116973;27;20044;-38
2023/12/15 05:03:15;;;;;;;9.48;6.85;;;24.10;42.30;;;;;;5114267;27;20034;-39
2023/12/15 05:05:43;;;;;;;16.92;5.57;;;23.90;41.30;;;;;;5112495;28;20245;-41
2023/12/15 05:08:09;;;;;;;19.20;5.97;;;23.80;41.90;;;;;;5120473;27;20031;-43
2023/12/15 05:10:35;;;;;;;14.68;5.90;;;23.70;42.30;;;;;;5115988;28;21004;-42
2023/12/15 05:13:02;;;;;;;16.23;6.03;;;23.50;42.30;;;;;;5117958;27;20032;-41
2023/12/15 05:15:28;;;;;;;13.65;5.63;;;23.40;42.50;;;;;;5118147;28;20024;-42
2023/12/15 05:17:54;;;;;;;12.43;5.53;;;23.30;42.60;;;;;;5115645;28;20527;-42
2023/12/15 05:20:20;;;;;;;11.77;5.28;;;23.20;42.70;;;;;;5114245;28;20036;-40
2023/12/15 05:22:47;;;;;;;10.18;5.60;;;23.10;42.90;;;;;;5114394;28;20049;-40
2023/12/15 05:25:13;;;;;;;9.10;5.32;;;23.10;43.30;;;;;;5118146;27;20031;-41
2023/12/15 05:27:40;;;;;;;9.23;5.18;;;23.00;43.30;;;;;;5112284;28;20115;-41
2023/12/15 05:30:07;;;;;;;8.25;4.57;;;22.90;43.20;;;;;;5117394;28;20086;-41
2023/12/15 05:32:33;;;;;;;8.15;4.97;;;22.80;43.40;;;;;;5110025;27;20127;-41
2023/12/15 05:34:59;;;;;;;7.75;4.65;;;22.80;43.10;;;;;;5108218;28;20035;-40
2023/12/15 05:37:25;;;;;;;7.80;4.70;;;22.90;42.90;;;;;;5115657;28;20027;-40
2023/12/15 05:39:51;;;;;;;6.10;4.22;;;23.00;42.80;;;;;;5116478;27;20027;-40
2023/12/15 05:42:17;;;;;;;7.55;3.60;;;23.00;42.60;;;;;;5117383;27;20060;-39
2023/12/15 05:44:43;;;;;;;7.25;3.90;;;23.00;42.50;;;;;;5108635;27;20021;-41
2023/12/15 05:47:09;;;;;;;6.78;4.03;;;23.10;42.50;;;;;;5121510;27;20126;-40
2023/12/15 05:49:40;;;;;;;6.30;3.90;;;23.10;42.50;;;;;;5113857;28;20040;-40
2023/12/15 05:52:08;;;;;;;5.47;3.65;;;23.10;42.60;;;;;;5111568;27;20030;-40
2023/12/15 05:54:35;;;;;;;6.00;4.00;;;23.20;42.60;;;;;;5091122;28;20058;-41
2023/12/15 05:57:01;;;;;;;4.93;3.55;;;23.20;42.60;;;;;;5111946;28;20035;-41
2023/12/15 05:59:27;;;;;;;4.78;3.60;;;23.20;42.60;;;;;;5110315;28;20079;-41
2023/12/15 06:01:53;;;;;;;6.43;3.45;;;23.20;42.50;;;;;;5115968;27;20034;-41
2023/12/15 06:04:19;;;;;;;4.57;3.33;;;23.30;42.50;;;;;;5114022;27;20104;-41
2023/12/15 06:06:45;;;;;;;4.68;3.40;;;23.30;42.40;;;;;;5116288;28;20024;-40
2023/12/15 06:09:11;;;;;;;4.85;3.35;;;23.30;42.30;;;;;;5119160;27;20486;-40
2023/12/15 06:11:41;;;;;;;5.15;3.30;;;23.30;42.30;;;;;;5115119;27;20053;-41
2023/12/15 06:14:08;;;;;;;4.82;3.30;;;23.30;42.30;;;;;;5091445;28;20024;-40
2023/12/15 06:16:34;;;;;;;6.15;4.00;;;23.40;42.30;;;;;;5121119;28;20028;-41
2023/12/15 06:19:01;;;;;;;4.38;2.95;;;23.40;42.30;;;;;;5123046;27;20032;-40
2023/12/15 06:21:27;;;;;;;4.55;2.90;;;23.40;42.20;;;;;;5114505;28;20107;-40
2023/12/15 06:23:54;;;;;;;4.85;2.53;;;23.40;42.20;;;;;;5110731;28;20994;-40
2023/12/15 06:26:24;;;;;;;3.60;2.80;;;23.40;42.20;;;;;;5115777;28;20035;-40
2023/12/15 06:28:50;;;;;;;4.35;3.20;;;23.50;42.10;;;;;;5113964;27;20047;-41
2023/12/15 06:31:16;;;;;;;3.55;2.60;;;23.50;42.10;;;;;;5102905;28;20111;-40
2023/12/15 06:33:42;;;;;;;3.60;3.03;;;23.50;42.10;;;;;;5113023;28;20030;-40
2023/12/15 06:36:09;;;;;;;5.13;2.80;;;23.50;42.10;;;;;;5121341;28;20084;-41
2023/12/15 06:38:36;;;;;;;3.42;2.75;;;23.50;42.10;;;;;;5108088;28;20024;-41
2023/12/15 06:41:05;;;;;;;4.82;2.70;;;23.60;42.10;;;;;;5111167;28;20062;-40
2023/12/15 06:43:31;;;;;;;3.75;2.70;;;23.60;42.00;;;;;;5112269;28;20027;-41
2023/12/15 06:45:57;;;;;;;5.28;2.78;;;23.60;42.10;;;;;;5116686;28;20415;-40
2023/12/15 06:48:24;;;;;;;4.30;2.63;;;23.70;42.10;;;;;;5107452;28;20104;-39
2023/12/15 06:50:50;;;;;;;4.28;2.80;;;23.60;42.00;;;;;;5116491;28;20043;-40
2023/12/15 06:53:17;;;;;;;2.42;2.22;;;23.60;41.90;;;;;;5110927;28;20035;-40
2023/12/15 06:55:43;;;;;;;;;;;23.70;41.90;;;;;;5118101;28;20792;-40
2023/12/15 06:58:09;;;;;;;2.42;2.20;;;23.70;41.90;;;;;;5119304;28;19911;-40
2023/12/15 07:00:35;;;;;;;3.60;2.35;;;23.70;41.80;;;;;;5119609;28;20027;-40
2023/12/15 07:03:01;;;;;;;2.95;2.25;;;23.70;41.80;;;;;;5114810;28;20090;-40
2023/12/15 07:05:27;;;;;;;2.53;2.10;;;23.70;41.70;;;;;;5119069;28;20023;-41
2023/12/15 07:07:53;;;;;;;3.38;2.03;;;23.70;41.70;;;;;;5118745;28;20034;-41
2023/12/15 07:10:20;;;;;;;2.60;2.10;;;23.80;41.70;;;;;;5118609;28;20130;-42
2023/12/15 07:12:46;;;;;;;2.58;2.17;;;23.80;41.70;;;;;;5118170;27;20059;-41
2023/12/15 07:15:12;;;;;;;2.85;2.10;;;23.80;41.80;;;;;;5117243;28;20035;-41
2023/12/15 07:17:38;;;;;;;2.75;2.50;;;23.80;41.90;;;;;;5117332;28;20496;-41
2023/12/15 07:20:05;;;;;;;3.35;2.28;;;23.80;41.80;;;;;;5119229;28;20100;-41
2023/12/15 07:22:31;;;;;;;2.70;2.00;;;23.80;41.80;;;;;;5115884;28;20027;-39
2023/12/15 07:24:57;;;;;;;2.47;1.80;;;23.80;41.80;;;;;;5115817;28;20118;-40
2023/12/15 07:27:23;;;;;;;2.38;2.00;;;23.90;41.70;;;;;;5119423;28;20027;-40
2023/12/15 07:29:52;;;;;;;2.10;1.90;;;23.80;41.70;;;;;;5117189;28;20031;-40
2023/12/15 07:32:18;;;;;;;2.75;1.90;;;23.90;41.60;;;;;;5119120;28;20034;-41
2023/12/15 07:34:44;;;;;;;1.90;1.60;;;23.90;41.60;;;;;;5119466;28;20460;-40
2023/12/15 07:37:11;;;;;;;2.45;1.90;;;23.90;41.50;;;;;;5119243;28;20077;-41
2023/12/15 07:39:37;;;;;;;2.05;1.85;;;24.00;41.50;;;;;;5118598;28;20038;-39
2023/12/15 07:42:03;;;;;;;2.22;2.03;;;24.00;41.40;;;;;;5118184;28;20031;-40
2023/12/15 07:44:29;;;;;;;3.10;1.90;;;24.00;41.30;;;;;;5115593;28;20566;-40
2023/12/15 07:46:55;;;;;;;2.75;2.00;;;24.00;41.20;;;;;;5116987;28;20039;-40
2023/12/15 07:49:22;;;;;;;1.95;1.52;;;24.00;41.20;;;;;;5119481;28;20027;-40
2023/12/15 07:51:49;;;;;;;2.47;1.77;;;24.00;41.20;;;;;;5118276;28;20586;-39
2023/12/15 07:54:16;;;;;;;2.55;1.70;;;24.00;41.10;;;;;;5118271;28;20097;-39
2023/12/15 07:56:42;;;;;;;1.88;1.50;;;24.00;41.10;;;;;;5115275;28;20028;-40
2023/12/15 07:59:08;;;;;;;2.13;1.70;;;24.00;41.20;;;;;;5106287;28;20032;-40
2023/12/15 08:01:34;;;;;;;1.70;1.50;;;23.80;41.60;;;;;;5117151;28;20024;-40
2023/12/15 08:04:01;;;;;;;2.50;1.80;;;23.80;42.00;;;;;;5115279;28;20039;-40
2023/12/15 08:06:27;;;;;;;2.47;1.98;;;23.70;41.90;;;;;;5116000;28;20038;-41
2023/12/15 08:08:54;;;;;;;2.50;1.83;;;23.50;41.80;;;;;;5111642;28;20044;-43
2023/12/15 08:11:22;;;;;;;3.27;1.73;;;23.40;41.90;;;;;;5112660;28;20100;-40
2023/12/15 08:13:48;;;;;;;3.13;2.00;;;23.30;42.10;;;;;;5113250;28;20050;-40
2023/12/15 08:16:15;;;;;;;2.40;1.73;;;23.10;42.10;;;;;;5115212;28;20818;-40
2023/12/15 08:18:42;;;;;;;2.40;1.95;;;23.00;42.10;;;;;;5112458;28;20376;-41
2023/12/15 08:21:08;;;;;;;2.55;1.90;;;22.90;42.10;;;;;;5097203;28;20028;-40
2023/12/15 08:23:34;;;;;;;3.13;1.85;;;22.70;42.10;;;;;;5119548;28;20037;-40
2023/12/15 08:26:00;;;;;;;2.28;1.90;;;22.60;42.20;;;;;;5122266;27;20048;-40
2023/12/15 08:28:26;;;;;;;2.58;1.90;;;22.60;42.30;;;;;;5123641;27;20043;-40
2023/12/15 08:30:52;;;;;;;2.80;1.67;;;22.60;41.80;;;;;;5121698;28;20067;-40
2023/12/15 08:33:19;;;;;;;1.95;1.60;;;22.70;41.70;;;;;;5120954;28;20028;-40
2023/12/15 08:35:45;;;;;;;2.55;1.65;;;22.70;41.50;;;;;;5121930;27;20059;-40
2023/12/15 08:38:11;;;;;;;1.92;1.50;;;22.80;41.40;;;;;;5121404;27;20020;-40
2023/12/15 08:40:37;;;;;;;2.22;1.77;;;22.80;41.30;;;;;;5122062;27;20111;-40
2023/12/15 08:43:03;;;;;;;1.90;1.50;;;22.90;41.30;;;;;;5120317;28;20754;-44
2023/12/15 08:45:29;;;;;;;1.60;1.25;;;22.90;41.30;;;;;;5118282;27;20027;-40
2023/12/15 08:47:55;;;;;;;1.88;1.60;;;22.90;41.40;;;;;;5120621;28;20062;-40
2023/12/15 08:50:21;;;;;;;1.60;1.40;;;22.90;41.30;;;;;;5121884;28;20040;-41
2023/12/15 08:52:48;;;;;;;1.85;1.50;;;22.90;41.30;;;;;;5121335;27;20096;-41
2023/12/15 08:55:14;;;;;;;2.08;1.50;;;22.90;41.40;;;;;;5101577;28;20043;-40
2023/12/15 08:57:40;;;;;;;2.30;1.70;;;22.90;41.50;;;;;;5120174;27;20552;-40
2023/12/15 09:00:07;;;;;;;2.25;1.58;;;22.90;41.50;;;;;;5123297;27;20059;-40
2023/12/15 09:02:33;;;;;;;3.17;2.03;;;23.00;41.60;;;;;;5119530;28;20028;-40
2023/12/15 09:05:00;;;;;;;1.40;1.30;;;23.00;41.40;;;;;;5119752;28;20040;-41
2023/12/15 09:07:27;;;;;;;2.10;1.50;;;23.00;41.40;;;;;;5121718;28;20070;-41
2023/12/15 09:09:53;;;;;;;2.35;1.52;;;23.00;41.50;;;;;;5122151;28;20035;-40
2023/12/15 09:12:19;;;;;;;1.98;1.52;;;23.10;41.40;;;;;;5121272;28;20056;-40
2023/12/15 09:14:46;;;;;;;1.85;1.45;;;23.00;41.40;;;;;;5120954;28;20042;-40
2023/12/15 09:17:13;;;;;;;1.80;1.42;;;23.10;41.40;;;;;;5121403;27;20039;-40
2023/12/15 09:19:40;;;;;;;2.38;1.60;;;23.10;41.40;;;;;;5121625;28;20036;-40
2023/12/15 09:22:06;;;;;;;1.80;1.30;;;23.10;41.40;;;;;;5122776;28;20028;-40
2023/12/15 09:24:33;;;;;;;2.20;1.33;;;23.10;41.20;;;;;;5115199;28;20036;-40
2023/12/15 09:27:00;;;;;;;2.03;1.25;;;23.10;41.20;;;;;;5117059;28;20023;-40
2023/12/15 09:29:26;;;;;;;1.30;1.20;;;23.10;41.20;;;;;;5121539;28;20779;-40
2023/12/15 09:31:52;;;;;;;1.67;1.38;;;23.10;41.10;;;;;;5119650;27;20047;-40
2023/12/15 09:34:19;;;;;;;1.60;1.17;;;23.10;41.20;;;;;;5118068;28;20028;-40
2023/12/15 09:36:46;;;;;;;1.63;1.50;;;23.20;41.20;;;;;;5121036;28;20039;-41
2023/12/15 09:39:12;;;;;;;1.48;1.25;;;23.20;41.20;;;;;;5121139;28;20096;-41
2023/12/15 09:41:38;;;;;;;1.20;1.02;;;23.20;41.10;;;;;;5120419;28;21142;-40
2023/12/15 09:44:05;;;;;;;1.65;1.40;;;23.20;41.10;;;;;;5113239;28;20674;-40
2023/12/15 09:46:31;;;;;;;2.00;1.52;;;23.20;41.10;;;;;;5119955;28;20026;-40
2023/12/15 09:48:57;;;;;;;1.83;1.52;;;23.20;40.90;;;;;;5102811;27;20130;-41
2023/12/15 09:51:24;;;;;;;1.77;1.50;;;23.20;40.90;;;;;;5120009;27;20085;-41
2023/12/15 09:53:50;;;;;;;;;;;23.30;40.90;;;;;;5120007;28;20503;-41
2023/12/15 09:56:16;;;;;;;1.92;1.40;;;23.20;40.90;;;;;;5119316;28;19912;-41
2023/12/15 09:58:43;;;;;;;1.88;1.48;;;23.30;40.90;;;;;;5099581;28;20024;-41
2023/12/15 10:01:12;;;;;;;1.38;1.17;;;23.20;40.80;;;;;;5117894;28;20057;-41
2023/12/15 10:03:39;;;;;;;1.75;1.30;;;23.30;40.90;;;;;;5117856;28;20023;-41
2023/12/15 10:06:05;;;;;;;1.65;1.25;;;23.30;40.90;;;;;;5116097;27;20031;-41
2023/12/15 10:08:42;;;;;;;1.40;1.10;;;23.30;41.40;;;;;;5114936;28;20647;-40
2023/12/15 10:11:08;;;;;;;2.03;1.40;;;23.30;40.80;;;;;;5119860;28;20505;-40
2023/12/15 10:13:34;;;;;;;1.67;1.27;;;23.30;40.70;;;;;;5118224;28;20046;-40
2023/12/15 10:16:01;;;;;;;2.30;1.65;;;23.30;40.70;;;;;;5113090;28;20024;-41
2023/12/15 10:18:27;;;;;;;1.58;1.48;;;23.30;41.30;;;;;;5093260;28;20024;-40
2023/12/15 10:20:56;;;;;;;1.40;1.20;;;23.30;40.70;;;;;;5107367;28;20035;-40
2023/12/15 10:23:28;;;;;;;1.45;1.25;;;23.40;40.70;;;;;;5114418;28;20111;-40
2023/12/15 10:25:55;;;;;;;1.50;1.30;;;23.40;40.70;;;;;;5107501;28;20024;-41
2023/12/15 10:28:22;;;;;;;2.08;1.08;;;23.40;40.60;;;;;;5096516;28;20028;-41
2023/12/15 10:30:51;;;;;;;1.90;1.33;;;23.40;40.70;;;;;;5117545;28;20044;-41
2023/12/15 10:33:18;;;;;;;1.63;1.30;;;23.40;40.70;;;;;;5115110;28;20015;-41
2023/12/15 10:35:48;;;;;;;1.83;1.27;;;23.40;40.60;;;;;;5098428;28;20039;-41
2023/12/15 10:38:17;;;;;;;1.63;1.40;;;23.40;40.60;;;;;;5118633;28;20035;-42
2023/12/15 10:40:43;;;;;;;2.08;1.25;;;23.40;40.60;;;;;;5119475;28;20024;-41
2023/12/15 10:43:10;;;;;;;1.23;1.13;;;23.40;40.60;;;;;;5119047;28;20054;-41
2023/12/15 10:45:37;;;;;;;1.85;1.38;;;23.40;40.50;;;;;;5114784;28;20077;-41
2023/12/15 10:48:03;;;;;;;1.30;1.20;;;23.40;40.50;;;;;;5118037;28;20099;-41
2023/12/15 10:50:29;;;;;;;1.47;1.20;;;23.40;40.50;;;;;;5117654;28;20291;-41
2023/12/15 10:52:56;;;;;;;1.38;1.27;;;23.40;40.50;;;;;;5115554;28;20075;-41
2023/12/15 10:55:26;;;;;;;1.88;1.48;;;23.40;40.40;;;;;;5117480;28;20087;-41
2023/12/15 10:57:53;;;;;;;1.75;1.45;;;23.40;40.40;;;;;;5116398;28;20741;-41
2023/12/15 11:00:19;;;;;;;1.50;1.17;;;23.40;40.40;;;;;;5116764;27;20035;-41
2023/12/15 11:02:46;;;;;;;1.60;1.37;;;23.40;40.40;;;;;;5095651;28;20032;-41
2023/12/15 11:05:12;;;;;;;1.48;1.27;;;23.40;40.90;;;;;;5099842;28;20284;-40
2023/12/15 11:07:39;;;;;;;1.98;1.20;;;23.40;40.30;;;;;;5114178;28;20039;-40
2023/12/15 11:10:09;;;;;;;1.42;1.27;;;23.40;40.40;;;;;;5098262;28;20031;-41
2023/12/15 11:12:39;;;;;;;1.30;1.20;;;23.40;40.30;;;;;;5096700;28;20058;-41
2023/12/15 11:15:13;;;;;;;1.75;1.20;;;23.40;40.30;;;;;;5112162;28;20035;-42
2023/12/15 11:18:06;;;;;;;1.67;1.20;;;23.40;40.30;;;;;;5115076;28;20057;-41
2023/12/15 11:20:33;;;;;;;1.80;1.20;;;23.40;40.30;;;;;;5111090;28;20039;-42
2023/12/15 11:23:07;;;;;;;1.60;1.13;;;23.50;40.20;;;;;;5113326;28;20111;-41
2023/12/15 11:25:35;;;;;;;1.48;1.20;;;23.40;40.20;;;;;;5115177;28;20031;-41
2023/12/15 11:28:08;;;;;;;1.25;1.10;;;23.50;40.20;;;;;;5112749;28;20032;-42
2023/12/15 11:30:41;;;;;;;1.33;1.13;;;23.50;40.20;;;;;;5114486;28;20048;-40
2023/12/15 11:33:26;;;;;;;1.48;1.35;;;23.50;40.10;;;;;;5114076;28;20512;-41
2023/12/15 11:35:53;;;;;;;1.60;1.30;;;23.50;40.20;;;;;;5116035;28;20035;-41
2023/12/15 11:38:22;;;;;;;1.40;1.20;;;23.50;40.80;;;;;;5114000;28;20020;-40
2023/12/15 11:40:48;;;;;;;1.20;1.00;;;23.50;40.20;;;;;;5113314;28;20028;-40
2023/12/15 11:43:15;;;;;;;1.20;1.10;;;23.40;40.20;;;;;;5117755;28;20035;-41
2023/12/15 11:45:43;;;;;;;2.15;1.15;;;23.50;40.20;;;;;;5095144;28;20031;-42
2023/12/15 11:48:10;;;;;;;1.27;1.10;;;23.40;40.10;;;;;;5114897;28;20914;-40
2023/12/15 11:50:41;;;;;;;1.55;1.20;;;23.50;40.10;;;;;;5115484;28;20035;-41
2023/12/15 11:53:09;;;;;;;1.63;1.05;;;23.50;40.10;;;;;;5110195;28;20028;-41
2023/12/15 11:55:36;;;;;;;1.83;1.08;;;23.50;40.10;;;;;;5112687;28;20031;-41
2023/12/15 11:58:14;;;;;;;1.97;1.20;;;23.50;40.20;;;;;;5116348;27;20089;-42
2023/12/15 12:00:41;;;;;;;1.85;1.20;;;23.50;40.40;;;;;;5119888;27;20284;-42
2023/12/15 12:03:12;;;;;;;1.40;1.10;;;23.50;40.70;;;;;;5115789;28;20031;-39
2023/12/15 12:05:40;;;;;;;1.50;1.08;;;23.50;40.70;;;;;;5117747;28;20063;-39
2023/12/15 12:08:07;;;;;;;2.45;1.20;;;23.50;40.60;;;;;;5119275;28;20027;-40
2023/12/15 12:10:40;;;;;;;1.58;1.20;;;23.50;40.40;;;;;;5097054;27;20039;-38
2023/12/15 12:13:07;;;;;;;1.60;1.20;;;23.50;40.00;;;;;;5118001;27;20077;-40
2023/12/15 12:15:47;;;;;;;2.10;1.55;;;23.40;40.40;;;;;;5120575;28;20551;-40
2023/12/15 12:18:14;;;;;;;3.38;1.23;;;23.30;40.80;;;;;;5122250;28;20601;-40
2023/12/15 12:20:43;;;;;;;;;;;23.20;40.80;;;;;;5119870;28;20046;-40
2023/12/15 12:23:09;;;;;;;2.28;1.70;;;23.10;41.00;;;;;;5121985;28;20384;-39
2023/12/15 12:25:35;;;;;;;2.08;1.40;;;22.90;41.00;;;;;;5117950;28;20066;-40
2023/12/15 12:28:01;;;;;;;1.60;1.30;;;22.80;41.20;;;;;;5120928;28;20028;-39
2023/12/15 12:30:28;;;;;;;2.40;1.35;;;22.70;41.20;;;;;;5117523;27;20036;-40
2023/12/15 12:32:54;;;;;;;2.13;1.40;;;22.60;41.20;;;;;;5120224;28;20036;-39
2023/12/15 12:35:20;;;;;;;2.80;1.42;;;22.50;41.40;;;;;;5121040;28;20031;-39
2023/12/15 12:37:48;;;;;;;2.42;1.48;;;22.40;41.50;;;;;;5119272;28;20037;-39
2023/12/15 12:40:14;;;;;;;;;;;22.20;41.50;;;;;;5118604;28;20476;-40
2023/12/15 12:42:40;;;;;;;2.42;1.50;;;22.10;41.60;;;;;;5120527;28;19908;-40
2023/12/15 12:45:07;;;;;;;2.10;1.48;;;22.00;41.60;;;;;;5119710;28;20027;-40